createdAt,value
2023-04-07T00:02:08.127Z,5.20
2023-04-07T00:04:35.764Z,5.10
2023-04-07T00:07:03.162Z,5.10
2023-04-07T00:09:30.744Z,5.10
2023-04-07T00:11:57.962Z,5.10
2023-04-07T00:14:25.214Z,5.00
2023-04-07T00:16:52.496Z,5.00
2023-04-07T00:19:19.711Z,5.00
2023-04-07T00:21:47.134Z,5.00
2023-04-07T00:24:21.020Z,5.00
2023-04-07T00:26:54.638Z,5.00
2023-04-07T00:29:21.917Z,5.00
2023-04-07T00:31:49.170Z,5.00
2023-04-07T00:34:16.433Z,5.00
2023-04-07T00:36:43.698Z,5.00
2023-04-07T00:39:10.993Z,5.00
2023-04-07T00:41:38.352Z,5.00
2023-04-07T00:44:05.590Z,5.00
2023-04-07T00:46:33.029Z,5.00
2023-04-07T00:49:01.101Z,5.00
2023-04-07T00:51:28.700Z,5.00
2023-04-07T00:53:56.532Z,5.00
2023-04-07T00:56:24.100Z,5.00
2023-04-07T00:58:51.789Z,4.90
2023-04-07T01:01:27.470Z,4.90
2023-04-07T01:04:17.876Z,4.90
2023-04-07T01:06:50.202Z,4.90
2023-04-07T01:09:26.592Z,4.80
2023-04-07T01:11:56.991Z,4.90
2023-04-07T01:14:25.591Z,4.90
2023-04-07T01:17:06.275Z,4.80
2023-04-07T01:19:53.471Z,4.80
2023-04-07T01:22:26.777Z,4.80
2023-04-07T01:25:11.414Z,4.70
2023-04-07T01:28:02.215Z,4.80
2023-04-07T01:30:33.227Z,4.80
2023-04-07T01:33:02.189Z,4.80
2023-04-07T01:35:32.480Z,4.70
2023-04-07T01:38:00.607Z,4.80
2023-04-07T01:40:28.981Z,4.70
2023-04-07T01:42:58.097Z,4.70
2023-04-07T01:45:27.590Z,4.70
2023-04-07T01:47:55.931Z,4.80
2023-04-07T01:50:23.893Z,4.80
2023-04-07T01:52:52.875Z,4.90
2023-04-07T01:55:21.261Z,4.80
2023-04-07T01:57:57.698Z,4.90
2023-04-07T02:00:25.040Z,4.90
2023-04-07T02:02:59.385Z,4.90
2023-04-07T02:05:29.920Z,4.90
2023-04-07T02:08:05.132Z,5.00
2023-04-07T02:10:38.906Z,5.00
2023-04-07T02:13:09.148Z,5.00
2023-04-07T02:15:37.813Z,5.00
2023-04-07T02:18:06.471Z,5.00
2023-04-07T02:20:36.998Z,5.00
2023-04-07T02:23:04.285Z,5.00
2023-04-07T02:25:32.710Z,5.00
2023-04-07T02:28:01.575Z,5.00
2023-04-07T02:30:29.292Z,4.90
2023-04-07T02:32:57.021Z,5.00
2023-04-07T02:35:24.735Z,5.00
2023-04-07T02:37:52.089Z,5.00
2023-04-07T02:40:19.525Z,5.00
2023-04-07T02:42:47.823Z,5.00
2023-04-07T02:45:16.055Z,5.00
2023-04-07T02:47:43.420Z,5.00
2023-04-07T02:50:11.136Z,5.10
2023-04-07T02:52:38.314Z,5.00
2023-04-07T02:55:11.405Z,5.10
2023-04-07T02:57:39.585Z,5.10
2023-04-07T03:00:13.213Z,5.20
2023-04-07T03:03:10.192Z,5.20
2023-04-07T03:05:40.460Z,5.10
2023-04-07T03:08:12.283Z,5.10
2023-04-07T03:10:40.579Z,4.90
2023-04-07T03:13:09.405Z,5.00
2023-04-07T03:15:37.838Z,5.00
2023-04-07T03:18:06.890Z,5.00
2023-04-07T03:20:35.207Z,5.00
2023-04-07T03:23:09.313Z,4.80
2023-04-07T03:25:36.915Z,4.90
2023-04-07T03:28:04.601Z,4.90
2023-04-07T03:30:35.647Z,5.00
2023-04-07T03:33:03.112Z,4.90
2023-04-07T03:35:31.841Z,4.90
2023-04-07T03:37:59.421Z,4.80
2023-04-07T03:40:27.207Z,4.70
2023-04-07T03:42:54.528Z,4.80
2023-04-07T03:45:22.743Z,4.70
2023-04-07T03:47:54.309Z,4.70
2023-04-07T03:50:22.736Z,4.70
2023-04-07T03:53:09.364Z,4.70
2023-04-07T03:55:37.423Z,4.80
2023-04-07T03:58:12.390Z,4.90
2023-04-07T04:00:40.860Z,4.90
2023-04-07T04:03:11.024Z,4.90
2023-04-07T04:05:47.425Z,4.90
2023-04-07T04:08:20.783Z,4.90
2023-04-07T04:10:48.176Z,4.90
2023-04-07T04:13:15.550Z,4.80
2023-04-07T04:15:43.883Z,4.80
2023-04-07T04:18:15.632Z,4.70
2023-04-07T04:20:43.779Z,4.80
2023-04-07T04:23:11.247Z,4.80
2023-04-07T04:25:39.823Z,4.80
2023-04-07T04:28:10.560Z,4.70
2023-04-07T04:30:38.097Z,4.70
2023-04-07T04:33:05.533Z,4.60
2023-04-07T04:36:02.205Z,4.70
2023-04-07T04:38:31.298Z,4.80
2023-04-07T04:41:06.276Z,4.80
2023-04-07T04:43:34.703Z,4.70
2023-04-07T04:46:04.111Z,4.70
2023-04-07T04:48:36.269Z,4.70
2023-04-07T04:51:06.124Z,4.70
2023-04-07T04:53:33.527Z,4.60
2023-04-07T04:56:02.695Z,4.60
2023-04-07T04:58:46.203Z,4.60
2023-04-07T05:01:19.465Z,4.70
2023-04-07T05:03:55.735Z,4.80
2023-04-07T05:06:27.973Z,4.80
2023-04-07T05:08:58.501Z,4.80
2023-04-07T05:11:31.639Z,4.60
2023-04-07T05:13:59.011Z,4.50
2023-04-07T05:16:26.754Z,4.50
2023-04-07T05:18:55.036Z,4.50
2023-04-07T05:21:24.839Z,4.40
2023-04-07T05:23:54.931Z,4.40
2023-04-07T05:26:24.243Z,4.40
2023-04-07T05:28:52.010Z,4.40
2023-04-07T05:31:23.529Z,4.30
2023-04-07T05:33:54.634Z,4.30
2023-04-07T05:36:25.714Z,4.40
2023-04-07T05:38:56.581Z,4.30
2023-04-07T05:41:24.069Z,4.40
2023-04-07T05:43:51.696Z,4.40
2023-04-07T05:46:19.470Z,4.30
2023-04-07T05:48:55.857Z,4.30
2023-04-07T05:51:24.311Z,4.30
2023-04-07T05:53:53.956Z,4.30
2023-04-07T05:56:23.530Z,4.30
2023-04-07T05:58:51.372Z,4.40
2023-04-07T06:01:19.756Z,4.30
2023-04-07T06:03:48.675Z,4.40
2023-04-07T06:06:21.954Z,4.50
2023-04-07T06:08:49.434Z,4.40
2023-04-07T06:11:16.681Z,4.40
2023-04-07T06:13:43.815Z,4.50
2023-04-07T06:16:11.196Z,4.50
2023-04-07T06:18:38.614Z,4.50
2023-04-07T06:21:07.459Z,4.50
2023-04-07T06:23:34.879Z,4.50
2023-04-07T06:26:02.368Z,4.50
2023-04-07T06:28:30.933Z,4.40
2023-04-07T06:31:00.566Z,4.40
2023-04-07T06:33:28.646Z,4.60
2023-04-07T06:35:57.606Z,4.60
2023-04-07T06:38:24.870Z,4.50
2023-04-07T06:40:52.143Z,4.50
2023-04-07T06:43:19.662Z,4.50
2023-04-07T06:46:07.905Z,4.60
2023-04-07T06:48:35.453Z,4.70
2023-04-07T06:51:02.608Z,4.80
2023-04-07T06:53:29.732Z,4.70
2023-04-07T06:56:04.946Z,4.70
2023-04-07T06:58:32.491Z,4.70
2023-04-07T07:01:01.316Z,4.60
2023-04-07T07:03:29.650Z,4.60
2023-04-07T07:05:57.700Z,4.70
2023-04-07T07:08:25.999Z,4.90
2023-04-07T07:10:54.036Z,4.80
2023-04-07T07:13:23.652Z,4.80
2023-04-07T07:15:51.624Z,4.90
2023-04-07T07:18:19.698Z,4.90
2023-04-07T07:20:47.139Z,4.90
2023-04-07T07:23:14.350Z,5.00
2023-04-07T07:25:41.788Z,5.00
2023-04-07T07:28:09.769Z,5.00
2023-04-07T07:30:39.303Z,5.10
2023-04-07T07:33:06.547Z,4.90
2023-04-07T07:35:33.922Z,4.90
2023-04-07T07:38:01.507Z,4.90
2023-04-07T07:40:28.816Z,4.90
2023-04-07T07:42:56.056Z,5.00
2023-04-07T07:45:23.387Z,5.00
2023-04-07T07:47:50.767Z,5.10
2023-04-07T07:50:18.103Z,5.10
2023-04-07T07:52:45.959Z,5.10
2023-04-07T07:55:13.346Z,5.00
2023-04-07T07:57:40.797Z,5.10
2023-04-07T08:00:08.631Z,5.20
2023-04-07T08:02:42.602Z,5.20
2023-04-07T08:05:18.948Z,5.20
2023-04-07T08:07:47.083Z,5.30
2023-04-07T08:10:16.608Z,5.30
2023-04-07T08:12:43.860Z,5.20
2023-04-07T08:15:11.364Z,5.20
2023-04-07T08:17:38.755Z,5.20
2023-04-07T08:20:07.956Z,5.20
2023-04-07T08:22:35.309Z,5.20
2023-04-07T08:25:03.158Z,5.20
2023-04-07T08:27:30.533Z,5.30
2023-04-07T08:30:04.046Z,5.30
2023-04-07T08:32:39.350Z,5.30
2023-04-07T08:35:07.214Z,5.40
2023-04-07T08:37:35.480Z,5.40
2023-04-07T08:40:04.118Z,5.30
2023-04-07T08:42:33.458Z,5.20
2023-04-07T08:45:07.342Z,5.20
2023-04-07T08:47:36.742Z,5.20
2023-04-07T08:50:09.626Z,5.10
2023-04-07T08:52:57.540Z,5.10
2023-04-07T08:55:28.283Z,5.10
2023-04-07T08:57:56.332Z,5.20
2023-04-07T09:00:30.001Z,5.10
2023-04-07T09:02:57.412Z,5.10
2023-04-07T09:05:25.358Z,5.10
2023-04-07T09:07:52.556Z,5.10
2023-04-07T09:10:19.822Z,5.10
2023-04-07T09:12:47.220Z,5.10
2023-04-07T09:15:14.596Z,5.10
2023-04-07T09:17:42.384Z,5.10
2023-04-07T09:20:10.008Z,5.00
2023-04-07T09:22:48.129Z,5.00
2023-04-07T09:25:34.053Z,5.10
2023-04-07T09:28:05.653Z,5.10
2023-04-07T09:30:35.421Z,5.10
2023-04-07T09:33:04.933Z,5.00
2023-04-07T09:35:35.524Z,5.10
2023-04-07T09:38:03.865Z,5.20
2023-04-07T09:40:31.774Z,5.20
2023-04-07T09:42:59.294Z,5.30
2023-04-07T09:45:34.650Z,5.30
2023-04-07T09:48:19.265Z,5.30
2023-04-07T09:50:49.854Z,5.30
2023-04-07T09:53:20.251Z,5.30
2023-04-07T09:55:48.612Z,5.40
2023-04-07T09:58:16.927Z,5.40
2023-04-07T10:00:45.864Z,5.40
2023-04-07T10:03:14.158Z,5.30
2023-04-07T10:05:42.672Z,5.30
2023-04-07T10:08:10.417Z,5.20
2023-04-07T10:10:43.135Z,5.30
2023-04-07T10:13:10.602Z,5.20
2023-04-07T10:15:38.128Z,5.30
2023-04-07T10:18:07.544Z,5.40
2023-04-07T10:20:37.171Z,5.50
2023-04-07T10:23:32.943Z,5.60
2023-04-07T10:26:01.332Z,5.60
2023-04-07T10:28:30.819Z,5.70
2023-04-07T10:30:59.044Z,5.80
2023-04-07T10:33:47.502Z,6.00
2023-04-07T10:36:15.919Z,6.00
2023-04-07T10:39:03.164Z,6.20
2023-04-07T10:41:37.837Z,6.40
2023-04-07T10:44:06.840Z,6.40
2023-04-07T10:46:57.190Z,6.40
2023-04-07T10:49:24.404Z,6.30
2023-04-07T10:52:13.697Z,6.20
2023-04-07T10:54:42.882Z,6.10
2023-04-07T10:57:14.666Z,6.00
2023-04-07T11:00:12.449Z,6.00
2023-04-07T11:02:40.722Z,5.90
2023-04-07T11:05:08.988Z,6.00
2023-04-07T11:07:47.351Z,6.10
2023-04-07T11:10:16.448Z,6.10
2023-04-07T11:12:43.995Z,6.10
2023-04-07T11:15:22.164Z,6.10
2023-04-07T11:18:18.359Z,6.20
2023-04-07T11:20:51.721Z,6.20
2023-04-07T11:23:21.210Z,6.30
2023-04-07T11:25:49.920Z,6.20
2023-04-07T11:28:17.896Z,6.20
2023-04-07T11:30:56.331Z,6.10
2023-04-07T11:33:26.642Z,6.10
2023-04-07T11:36:01.116Z,6.10
2023-04-07T11:38:38.838Z,6.00
2023-04-07T11:41:15.643Z,6.00
2023-04-07T11:43:43.039Z,6.00
2023-04-07T11:46:16.985Z,6.10
2023-04-07T11:48:45.677Z,6.10
2023-04-07T11:51:22.785Z,6.10
2023-04-07T11:53:57.007Z,6.20
2023-04-07T11:56:24.275Z,6.20
2023-04-07T11:58:53.259Z,6.20
2023-04-07T12:01:21.210Z,6.30
2023-04-07T12:04:00.230Z,6.30
2023-04-07T12:06:35.142Z,6.30
2023-04-07T12:09:03.590Z,6.30
2023-04-07T12:11:31.964Z,6.40
2023-04-07T12:13:59.771Z,6.30
2023-04-07T12:16:27.118Z,6.40
2023-04-07T12:18:54.607Z,6.40
2023-04-07T12:21:21.853Z,6.40
2023-04-07T12:23:49.415Z,6.40
2023-04-07T12:26:16.930Z,6.40
2023-04-07T12:28:44.264Z,6.40
2023-04-07T12:31:11.528Z,6.40
2023-04-07T12:33:38.762Z,6.40
2023-04-07T12:36:06.717Z,6.50
2023-04-07T12:38:34.045Z,6.50
2023-04-07T12:41:03.728Z,6.50
2023-04-07T12:43:31.623Z,6.50
2023-04-07T12:45:58.855Z,6.50
2023-04-07T12:48:27.625Z,6.50
2023-04-07T12:50:55.448Z,6.50
2023-04-07T12:53:22.975Z,6.60
2023-04-07T12:55:50.741Z,6.50
2023-04-07T12:58:19.206Z,6.50
2023-04-07T13:00:49.730Z,6.40
2023-04-07T13:03:17.725Z,6.40
2023-04-07T13:05:45.375Z,6.40
2023-04-07T13:08:12.805Z,6.50
2023-04-07T13:10:40.065Z,6.60
2023-04-07T13:13:07.338Z,6.60
2023-04-07T13:15:34.822Z,6.70
2023-04-07T13:18:02.228Z,6.80
2023-04-07T13:20:30.565Z,6.80
2023-04-07T13:23:07.582Z,6.80
2023-04-07T13:25:37.601Z,6.80
2023-04-07T13:28:05.934Z,6.70
2023-04-07T13:30:33.552Z,6.70
2023-04-07T13:33:01.152Z,6.80
2023-04-07T13:35:30.376Z,6.80
2023-04-07T13:37:57.603Z,6.80
2023-04-07T13:40:24.829Z,6.80
2023-04-07T13:42:52.105Z,6.90
2023-04-07T13:45:19.518Z,6.80
2023-04-07T13:47:47.170Z,6.80
2023-04-07T13:50:14.692Z,6.80
2023-04-07T13:52:41.912Z,6.90
2023-04-07T13:55:09.605Z,7.00
2023-04-07T13:57:36.863Z,7.10
2023-04-07T14:00:04.824Z,7.10
2023-04-07T14:02:36.513Z,6.90
2023-04-07T14:05:04.152Z,6.80
2023-04-07T14:07:31.366Z,6.70
2023-04-07T14:09:58.904Z,6.70
2023-04-07T14:12:26.556Z,6.70
2023-04-07T14:14:54.915Z,6.70
2023-04-07T14:17:22.115Z,6.70
2023-04-07T14:19:49.353Z,6.80
2023-04-07T14:22:16.628Z,6.80
2023-04-07T14:24:43.975Z,6.80
2023-04-07T14:27:11.249Z,6.80
2023-04-07T14:29:38.396Z,6.70
2023-04-07T14:32:05.555Z,6.50
2023-04-07T14:34:32.980Z,6.50
2023-04-07T14:37:00.360Z,6.30
2023-04-07T14:39:27.677Z,6.20
2023-04-07T14:41:54.955Z,6.10
2023-04-07T14:44:22.346Z,6.00
2023-04-07T14:46:49.640Z,5.90
2023-04-07T14:49:17.052Z,5.80
2023-04-07T14:51:44.787Z,5.80
2023-04-07T14:54:12.438Z,5.80
2023-04-07T14:56:39.804Z,5.80
2023-04-07T14:59:07.094Z,5.80
2023-04-07T15:01:34.380Z,5.90
2023-04-07T15:04:02.016Z,5.90
2023-04-07T15:06:29.324Z,6.00
2023-04-07T15:08:56.528Z,6.00
2023-04-07T15:11:24.068Z,6.00
2023-04-07T15:13:51.515Z,5.90
2023-04-07T15:16:18.930Z,6.00
2023-04-07T15:18:47.380Z,6.00
2023-04-07T15:21:15.722Z,6.10
2023-04-07T15:23:43.092Z,6.10
2023-04-07T15:26:10.892Z,6.10
2023-04-07T15:28:38.582Z,6.10
2023-04-07T15:31:09.958Z,6.10
2023-04-07T15:33:38.830Z,6.10
2023-04-07T15:36:08.426Z,6.10
2023-04-07T15:38:36.368Z,6.10
2023-04-07T15:41:03.536Z,6.10
2023-04-07T15:43:30.806Z,6.10
2023-04-07T15:45:58.059Z,6.10
2023-04-07T15:48:25.539Z,6.10
2023-04-07T15:50:54.001Z,6.10
2023-04-07T15:53:21.353Z,6.20
2023-04-07T15:55:48.511Z,6.20
2023-04-07T15:58:15.746Z,6.10
2023-04-07T16:00:43.561Z,6.20
2023-04-07T16:03:10.978Z,6.20
2023-04-07T16:05:38.874Z,6.20
2023-04-07T16:08:06.373Z,6.30
2023-04-07T16:10:33.948Z,6.20
2023-04-07T16:13:01.234Z,6.30
2023-04-07T16:15:39.437Z,6.30
2023-04-07T16:18:10.146Z,6.30
2023-04-07T16:20:37.433Z,6.20
2023-04-07T16:23:04.617Z,6.30
2023-04-07T16:25:32.161Z,6.30
2023-04-07T16:27:59.380Z,6.30
2023-04-07T16:30:26.633Z,6.30
2023-04-07T16:32:53.935Z,6.20
2023-04-07T16:35:21.306Z,6.20
2023-04-07T16:37:50.168Z,6.30
2023-04-07T16:40:17.499Z,6.30
2023-04-07T16:42:44.794Z,6.30
2023-04-07T16:45:12.015Z,6.30
2023-04-07T16:47:39.518Z,6.30
2023-04-07T16:50:07.477Z,6.30
2023-04-07T16:52:34.722Z,6.40
2023-04-07T16:55:02.129Z,6.50
2023-04-07T16:57:30.444Z,6.40
2023-04-07T16:59:57.627Z,6.40
2023-04-07T17:02:25.418Z,6.40
2023-04-07T17:04:53.884Z,6.30
2023-04-07T17:07:21.165Z,6.30
2023-04-07T17:09:48.444Z,6.30
2023-04-07T17:12:16.393Z,6.30
2023-04-07T17:14:43.660Z,6.30
2023-04-07T17:17:11.018Z,6.30
2023-04-07T17:19:38.295Z,6.30
2023-04-07T17:22:05.457Z,6.30
2023-04-07T17:24:32.684Z,6.20
2023-04-07T17:26:59.848Z,6.30
2023-04-07T17:29:29.203Z,6.20
2023-04-07T17:31:56.854Z,6.10
2023-04-07T17:34:24.098Z,6.20
2023-04-07T17:36:51.762Z,6.20
2023-04-07T17:39:19.203Z,6.10
2023-04-07T17:41:47.697Z,6.10
2023-04-07T17:44:15.724Z,6.20
2023-04-07T17:46:43.254Z,6.30
2023-04-07T17:49:10.610Z,6.20
2023-04-07T17:51:37.931Z,6.30
2023-04-07T17:54:05.246Z,6.20
2023-04-07T17:56:32.885Z,6.20
2023-04-07T17:59:01.296Z,6.20
2023-04-07T18:01:28.598Z,6.20
2023-04-07T18:03:55.965Z,6.20
2023-04-07T18:06:23.535Z,6.30
2023-04-07T18:08:50.881Z,6.30
2023-04-07T18:11:18.807Z,6.20
2023-04-07T18:13:46.340Z,6.20
2023-04-07T18:16:19.268Z,6.10
2023-04-07T18:18:48.867Z,6.10
2023-04-07T18:21:16.302Z,6.20
2023-04-07T18:23:43.548Z,6.10
2023-04-07T18:26:12.437Z,6.20
2023-04-07T18:28:42.878Z,6.30
2023-04-07T18:31:11.083Z,6.40
2023-04-07T18:33:38.472Z,6.30
2023-04-07T18:36:08.011Z,6.40
2023-04-07T18:38:36.489Z,6.30
2023-04-07T18:41:06.159Z,6.30
2023-04-07T18:43:33.520Z,6.30
2023-04-07T18:46:00.997Z,6.30
2023-04-07T18:48:28.602Z,6.30
2023-04-07T18:50:56.651Z,6.30
2023-04-07T18:53:26.015Z,6.30
2023-04-07T18:55:53.415Z,6.30
2023-04-07T18:58:21.101Z,6.30
2023-04-07T19:00:53.465Z,6.20
2023-04-07T19:03:21.796Z,6.20
2023-04-07T19:05:52.279Z,6.20
2023-04-07T19:08:20.038Z,6.30
2023-04-07T19:10:47.773Z,6.20
2023-04-07T19:13:17.888Z,6.20
2023-04-07T19:15:46.561Z,6.20
2023-04-07T19:18:14.017Z,6.20
2023-04-07T19:20:41.412Z,6.20
2023-04-07T19:23:08.956Z,6.30
2023-04-07T19:25:36.225Z,6.40
2023-04-07T19:28:03.561Z,6.40
2023-04-07T19:30:30.982Z,6.40
2023-04-07T19:32:58.269Z,6.40
2023-04-07T19:35:25.704Z,6.40
2023-04-07T19:37:53.739Z,6.30
2023-04-07T19:40:23.677Z,6.30
2023-04-07T19:42:51.110Z,6.30
2023-04-07T19:45:19.034Z,6.30
2023-04-07T19:47:47.265Z,6.30
2023-04-07T19:50:14.699Z,6.30
2023-04-07T19:52:45.286Z,6.30
2023-04-07T19:55:13.565Z,6.30
2023-04-07T19:57:41.245Z,6.30
2023-04-07T20:00:09.268Z,6.30
2023-04-07T20:02:37.500Z,6.20
2023-04-07T20:05:05.277Z,6.20
2023-04-07T20:07:33.515Z,6.20
2023-04-07T20:10:01.246Z,6.30
2023-04-07T20:12:28.491Z,6.20
2023-04-07T20:14:55.935Z,6.20
2023-04-07T20:17:23.656Z,6.20
2023-04-07T20:19:54.578Z,6.20
2023-04-07T20:22:22.923Z,6.20
2023-04-07T20:24:50.153Z,6.30
2023-04-07T20:27:18.382Z,6.30
2023-04-07T20:29:45.666Z,6.30
2023-04-07T20:32:13.008Z,6.20
2023-04-07T20:34:40.323Z,6.20
2023-04-07T20:37:07.611Z,6.20
2023-04-07T20:39:34.863Z,6.20
2023-04-07T20:42:03.156Z,6.20
2023-04-07T20:44:31.457Z,6.20
2023-04-07T20:46:58.681Z,6.20
2023-04-07T20:49:25.904Z,6.30
2023-04-07T20:51:53.126Z,6.40
2023-04-07T20:54:20.471Z,6.50
2023-04-07T20:56:47.779Z,6.50
2023-04-07T20:59:15.106Z,6.40
2023-04-07T21:01:42.335Z,6.40
2023-04-07T21:04:13.064Z,6.40
2023-04-07T21:06:42.153Z,6.50
2023-04-07T21:09:09.901Z,6.50
2023-04-07T21:11:37.325Z,6.50
2023-04-07T21:14:05.355Z,6.40
2023-04-07T21:16:32.609Z,6.40
2023-04-07T21:18:59.825Z,6.40
2023-04-07T21:21:27.719Z,6.30
2023-04-07T21:23:54.888Z,6.20
2023-04-07T21:26:22.317Z,6.20
2023-04-07T21:28:50.962Z,6.20
2023-04-07T21:31:24.517Z,6.20
2023-04-07T21:33:52.872Z,6.30
2023-04-07T21:36:20.133Z,6.40
2023-04-07T21:38:48.042Z,6.40
2023-04-07T21:41:15.561Z,6.40
2023-04-07T21:43:42.797Z,6.40
2023-04-07T21:46:10.143Z,6.30
2023-04-07T21:48:37.476Z,6.30
2023-04-07T21:51:04.786Z,6.30
2023-04-07T21:53:32.432Z,6.30
2023-04-07T21:55:59.689Z,6.30
2023-04-07T21:58:26.885Z,6.30
2023-04-07T22:00:54.291Z,6.20
2023-04-07T22:03:22.286Z,6.20
2023-04-07T22:05:50.033Z,6.20
2023-04-07T22:08:17.535Z,6.20
2023-04-07T22:10:44.809Z,6.20
2023-04-07T22:13:12.013Z,6.30
2023-04-07T22:15:39.215Z,6.30
2023-04-07T22:18:07.074Z,6.30
2023-04-07T22:20:34.339Z,6.40
2023-04-07T22:23:01.462Z,6.30
2023-04-07T22:25:28.710Z,6.30
2023-04-07T22:27:56.938Z,6.30
2023-04-07T22:30:24.670Z,6.30
2023-04-07T22:32:52.205Z,6.30
2023-04-07T22:35:19.690Z,6.30
2023-04-07T22:37:46.978Z,6.40
2023-04-07T22:40:14.203Z,6.40
2023-04-07T22:42:41.476Z,6.30
2023-04-07T22:45:09.404Z,6.30
2023-04-07T22:47:38.561Z,6.30
2023-04-07T22:50:06.676Z,6.30
2023-04-07T22:52:33.820Z,6.40
2023-04-07T22:55:01.124Z,6.30
2023-04-07T22:57:28.524Z,6.40
2023-04-07T22:59:55.735Z,6.40
2023-04-07T23:02:23.116Z,6.50
2023-04-07T23:04:51.165Z,6.40
2023-04-07T23:07:18.611Z,6.40
2023-04-07T23:09:46.354Z,6.40
2023-04-07T23:12:13.608Z,6.40
2023-04-07T23:14:40.927Z,6.50
2023-04-07T23:17:08.579Z,6.50
2023-04-07T23:19:35.844Z,6.50
2023-04-07T23:22:03.009Z,6.50
2023-04-07T23:24:30.377Z,6.40
2023-04-07T23:26:57.727Z,6.40
2023-04-07T23:29:25.136Z,6.40
2023-04-07T23:31:52.924Z,6.50
2023-04-07T23:34:20.983Z,6.50
2023-04-07T23:36:48.272Z,6.50
2023-04-07T23:39:15.544Z,6.50
2023-04-07T23:41:42.731Z,6.50
2023-04-07T23:44:09.985Z,6.50
2023-04-07T23:46:37.169Z,6.50
2023-04-07T23:49:04.374Z,6.50
2023-04-07T23:51:32.714Z,6.50
2023-04-07T23:53:59.953Z,6.50
2023-04-07T23:56:29.004Z,6.50
2023-04-07T23:58:56.260Z,6.60
